createdAt,value
2022-11-01T00:00:55.703Z,89.81
2022-11-01T00:03:26.017Z,89.90
2022-11-01T00:05:56.389Z,89.77
2022-11-01T00:08:27.062Z,89.66
2022-11-01T00:11:05.435Z,89.72
2022-11-01T00:13:35.697Z,89.62
2022-11-01T00:16:06.368Z,89.77
2022-11-01T00:18:37.206Z,89.41
2022-11-01T00:21:07.625Z,89.73
2022-11-01T00:23:38.037Z,89.84
2022-11-01T00:26:10.162Z,89.91
2022-11-01T00:28:40.580Z,89.81
2022-11-01T00:31:12.798Z,89.79
2022-11-01T00:33:43.618Z,89.70
2022-11-01T00:36:14.455Z,89.59
2022-11-01T00:38:44.880Z,89.86
2022-11-01T00:41:15.863Z,89.77
2022-11-01T00:43:46.181Z,89.82
2022-11-01T00:46:17.341Z,89.94
2022-11-01T00:48:47.594Z,89.64
2022-11-01T00:51:18.080Z,89.68
2022-11-01T00:53:48.638Z,90.03
2022-11-01T00:56:19.136Z,90.01
2022-11-01T00:58:49.555Z,89.96
2022-11-01T01:01:19.984Z,89.83
2022-11-01T01:03:50.507Z,90.03
2022-11-01T01:06:21.660Z,90.07
2022-11-01T01:08:52.128Z,89.74
2022-11-01T01:11:22.372Z,89.85
2022-11-01T01:13:52.838Z,89.94
2022-11-01T01:16:23.452Z,90.03
2022-11-01T01:18:54.250Z,90.08
2022-11-01T01:21:24.634Z,89.90
2022-11-01T01:23:55.181Z,90.13
2022-11-01T01:26:25.433Z,90.10
2022-11-01T01:28:56.169Z,89.85
2022-11-01T01:31:26.607Z,90.00
2022-11-01T01:33:58.845Z,90.09
2022-11-01T01:36:29.097Z,90.21
2022-11-01T01:38:59.688Z,90.09
2022-11-01T01:41:48.650Z,90.13
2022-11-01T01:44:46.997Z,90.55
2022-11-01T01:47:48.448Z,90.04
2022-11-01T01:50:31.522Z,90.07
2022-11-01T01:53:17.854Z,90.26
2022-11-01T01:55:56.821Z,89.88
2022-11-01T01:58:35.394Z,90.00
2022-11-01T02:01:06.025Z,89.90
2022-11-01T02:03:37.557Z,90.21
2022-11-01T02:06:19.311Z,90.35
2022-11-01T02:09:01.174Z,90.34
2022-11-01T02:11:31.398Z,90.14
2022-11-01T02:14:02.863Z,90.19
2022-11-01T02:16:58.210Z,90.69
2022-11-01T02:20:00.813Z,90.55
2022-11-01T02:22:55.827Z,90.22
2022-11-01T02:26:23.302Z,91.13
2022-11-01T02:29:08.512Z,90.17
2022-11-01T02:31:41.535Z,90.10
2022-11-01T02:34:29.686Z,90.47
2022-11-01T02:37:21.068Z,90.31
2022-11-01T02:40:02.367Z,90.21
2022-11-01T02:42:39.063Z,89.92
2022-11-01T02:45:27.927Z,90.24
2022-11-01T02:47:59.999Z,90.30
2022-11-01T02:50:54.453Z,90.62
2022-11-01T02:53:24.657Z,90.07
2022-11-01T02:55:54.771Z,90.29
2022-11-01T02:58:29.763Z,90.26
2022-11-01T03:00:59.795Z,90.35
2022-11-01T03:03:35.598Z,90.04
2022-11-01T03:06:05.774Z,89.81
2022-11-01T03:08:40.871Z,90.36
2022-11-01T03:11:23.108Z,90.03
2022-11-01T03:14:29.470Z,90.52
2022-11-01T03:17:09.939Z,89.90
2022-11-01T03:19:56.834Z,90.31
2022-11-01T03:22:48.902Z,90.43
2022-11-01T03:25:44.532Z,90.08
2022-11-01T03:28:21.951Z,89.29
2022-11-01T03:31:02.435Z,89.42
2022-11-01T03:33:35.306Z,89.73
2022-11-01T03:36:13.589Z,90.42
2022-11-01T03:38:51.947Z,90.50
2022-11-01T03:41:25.012Z,90.22
2022-11-01T03:43:55.622Z,90.19
2022-11-01T03:46:26.398Z,90.20
2022-11-01T03:48:56.792Z,89.96
2022-11-01T03:51:26.899Z,90.04
2022-11-01T03:53:57.248Z,90.07
2022-11-01T03:56:27.440Z,89.83
2022-11-01T03:58:57.652Z,90.10
2022-11-01T04:01:28.042Z,89.93
2022-11-01T04:03:58.191Z,90.02
2022-11-01T04:06:28.364Z,90.12
2022-11-01T04:08:58.624Z,90.06
2022-11-01T04:11:28.795Z,90.01
2022-11-01T04:14:18.859Z,89.81
2022-11-01T04:17:07.520Z,89.48
2022-11-01T04:19:56.400Z,89.63
2022-11-01T04:22:26.521Z,89.85
2022-11-01T04:24:56.655Z,89.85
2022-11-01T04:27:26.698Z,89.94
2022-11-01T04:29:56.872Z,90.20
2022-11-01T04:32:26.959Z,89.94
2022-11-01T04:34:57.087Z,90.28
2022-11-01T04:37:27.167Z,90.05
2022-11-01T04:39:57.206Z,90.14
2022-11-01T04:42:27.361Z,90.10
2022-11-01T04:44:57.452Z,90.00
2022-11-01T04:47:27.879Z,89.92
2022-11-01T04:49:58.045Z,90.11
2022-11-01T04:52:28.138Z,90.11
2022-11-01T04:54:58.198Z,89.92
2022-11-01T04:57:28.395Z,90.06
2022-11-01T04:59:58.503Z,90.00
2022-11-01T05:02:30.472Z,89.85
2022-11-01T05:05:00.506Z,89.57
2022-11-01T05:07:30.592Z,89.77
2022-11-01T05:10:01.138Z,89.77
2022-11-01T05:12:31.476Z,89.49
2022-11-01T05:15:01.611Z,89.62
2022-11-01T05:17:31.818Z,89.60
2022-11-01T05:20:02.231Z,89.79
2022-11-01T05:22:32.289Z,89.52
2022-11-01T05:25:02.979Z,89.58
2022-11-01T05:27:33.058Z,89.49
2022-11-01T05:30:04.354Z,89.68
2022-11-01T05:32:35.802Z,89.64
2022-11-01T05:35:06.451Z,89.23
2022-11-01T05:37:37.077Z,89.05
2022-11-01T05:40:08.103Z,89.05
2022-11-01T05:42:39.753Z,89.22
2022-11-01T05:45:10.758Z,89.29
2022-11-01T05:47:41.580Z,89.31
2022-11-01T05:50:14.675Z,89.06
2022-11-01T05:52:45.102Z,89.33
2022-11-01T05:55:15.290Z,89.18
2022-11-01T05:57:45.443Z,89.27
2022-11-01T06:00:15.728Z,89.39
2022-11-01T06:02:45.855Z,89.41
2022-11-01T06:05:16.150Z,89.42
2022-11-01T06:07:46.254Z,89.33
2022-11-01T06:10:16.551Z,89.18
2022-11-01T06:12:46.707Z,89.17
2022-11-01T06:15:16.933Z,89.15
2022-11-01T06:17:47.001Z,89.01
2022-11-01T06:20:17.163Z,88.94
2022-11-01T06:22:47.289Z,88.61
2022-11-01T06:25:17.562Z,89.11
2022-11-01T06:27:48.240Z,88.99
2022-11-01T06:30:18.410Z,89.00
2022-11-01T06:32:48.483Z,88.82
2022-11-01T06:35:18.838Z,88.88
2022-11-01T06:37:48.953Z,88.68
2022-11-01T06:40:19.051Z,88.84
2022-11-01T06:42:49.186Z,88.98
2022-11-01T06:45:19.321Z,88.83
2022-11-01T06:47:49.530Z,88.77
2022-11-01T06:50:19.691Z,88.60
2022-11-01T06:52:50.462Z,88.70
2022-11-01T06:55:20.583Z,88.89
2022-11-01T06:57:59.112Z,88.58
2022-11-01T07:00:30.872Z,88.67
2022-11-01T07:03:10.426Z,88.84
2022-11-01T07:05:40.997Z,88.58
2022-11-01T07:08:13.424Z,88.75
2022-11-01T07:10:43.984Z,88.74
2022-11-01T07:13:14.278Z,88.54
2022-11-01T07:15:44.396Z,88.51
2022-11-01T07:18:14.585Z,88.55
2022-11-01T07:23:18.602Z,88.83
2022-11-01T07:25:53.060Z,88.63
2022-11-01T07:28:23.642Z,88.56
2022-11-01T07:30:55.284Z,88.74
2022-11-01T07:33:25.495Z,88.57
2022-11-01T07:35:55.562Z,88.45
2022-11-01T07:38:25.702Z,88.31
2022-11-01T07:40:55.837Z,88.22
2022-11-01T07:43:26.045Z,87.90
2022-11-01T07:46:00.652Z,88.19
2022-11-01T07:48:30.902Z,88.02
2022-11-01T07:51:03.017Z,87.98
2022-11-01T07:53:34.159Z,87.59
2022-11-01T07:56:04.504Z,87.46
2022-11-01T07:58:34.664Z,87.59
2022-11-01T08:01:04.810Z,87.53
2022-11-01T08:03:35.038Z,87.20
2022-11-01T08:06:05.373Z,87.21
2022-11-01T08:08:36.967Z,87.26
2022-11-01T08:11:07.139Z,86.99
2022-11-01T08:13:37.309Z,86.79
2022-11-01T08:16:07.850Z,87.01
2022-11-01T08:18:37.897Z,87.00
2022-11-01T08:21:08.129Z,87.00
2022-11-01T08:23:38.564Z,86.66
2022-11-01T08:26:08.723Z,86.66
2022-11-01T08:28:38.947Z,86.27
2022-11-01T08:31:10.341Z,86.17
2022-11-01T08:33:40.451Z,85.86
2022-11-01T08:36:10.584Z,85.51
2022-11-01T08:38:40.719Z,85.09
2022-11-01T08:41:10.866Z,85.57
2022-11-01T08:43:41.072Z,85.69
2022-11-01T08:46:11.320Z,85.25
2022-11-01T08:48:41.675Z,85.09
2022-11-01T08:51:11.880Z,85.18
2022-11-01T08:53:42.002Z,84.97
2022-11-01T08:56:12.165Z,85.57
2022-11-01T08:58:42.304Z,85.09
2022-11-01T09:01:12.546Z,84.85
2022-11-01T09:03:43.057Z,84.29
2022-11-01T09:06:13.997Z,84.42
2022-11-01T09:08:44.135Z,84.09
2022-11-01T09:11:14.675Z,84.47
2022-11-01T09:13:44.789Z,84.48
2022-11-01T09:16:15.269Z,84.31
2022-11-01T09:18:45.670Z,84.03
2022-11-01T09:21:17.302Z,83.33
2022-11-01T09:23:47.634Z,83.03
2022-11-01T09:26:17.866Z,83.30
2022-11-01T09:28:48.100Z,83.12
2022-11-01T09:31:22.065Z,83.24
2022-11-01T09:33:57.978Z,83.09
2022-11-01T09:36:29.488Z,83.22
2022-11-01T09:38:59.846Z,82.68
2022-11-01T09:41:35.908Z,82.46
2022-11-01T09:44:08.443Z,82.50
2022-11-01T09:46:55.511Z,81.91
2022-11-01T09:49:50.538Z,81.58
2022-11-01T09:52:23.768Z,82.46
2022-11-01T09:54:54.087Z,82.47
2022-11-01T09:57:33.641Z,82.17
2022-11-01T10:00:04.629Z,82.17
2022-11-01T10:02:38.727Z,82.05
2022-11-01T10:05:36.339Z,82.14
2022-11-01T10:08:30.828Z,81.51
2022-11-01T10:11:08.629Z,81.81
2022-11-01T10:14:05.636Z,81.90
2022-11-01T10:16:38.513Z,81.97
2022-11-01T10:19:19.348Z,82.24
2022-11-01T10:21:54.692Z,82.39
2022-11-01T10:24:35.276Z,82.44
2022-11-01T10:27:27.294Z,82.42
2022-11-01T10:30:04.883Z,82.52
2022-11-01T10:32:58.739Z,82.21
2022-11-01T10:35:45.143Z,82.29
2022-11-01T10:38:49.938Z,82.12
2022-11-01T10:41:36.789Z,82.19
2022-11-01T10:44:21.572Z,81.40
2022-11-01T10:46:53.611Z,82.27
2022-11-01T10:50:00.509Z,81.93
2022-11-01T10:52:33.510Z,82.36
2022-11-01T10:55:06.546Z,82.70
2022-11-01T10:57:46.111Z,82.30
2022-11-01T11:00:20.281Z,82.35
2022-11-01T11:02:57.982Z,81.44
2022-11-01T11:05:31.008Z,82.03
2022-11-01T11:08:05.562Z,82.30
2022-11-01T11:10:36.498Z,82.06
2022-11-01T11:13:09.733Z,82.03
2022-11-01T11:15:42.828Z,81.80
2022-11-01T11:18:21.572Z,81.53
2022-11-01T11:20:58.900Z,81.69
2022-11-01T11:23:33.259Z,81.29
2022-11-01T11:26:08.196Z,81.23
2022-11-01T11:28:44.857Z,80.82
2022-11-01T11:31:36.040Z,80.10
2022-11-01T11:34:27.582Z,79.96
2022-11-01T11:37:00.439Z,80.30
2022-11-01T11:39:36.999Z,79.96
2022-11-01T11:42:16.667Z,78.16
2022-11-01T11:44:52.115Z,79.57
2022-11-01T11:47:28.688Z,79.44
2022-11-01T11:50:00.789Z,79.58
2022-11-01T11:52:38.544Z,79.65
2022-11-01T11:55:29.676Z,79.47
2022-11-01T11:58:00.001Z,79.26
2022-11-01T12:00:33.545Z,79.65
2022-11-01T12:03:07.127Z,79.58
2022-11-01T12:05:37.920Z,79.44
2022-11-01T12:08:26.110Z,79.19
2022-11-01T12:11:00.127Z,79.53
2022-11-01T12:13:38.010Z,79.69
2022-11-01T12:16:20.804Z,79.09
2022-11-01T12:18:55.307Z,79.47
2022-11-01T12:21:41.898Z,79.08
2022-11-01T12:24:22.929Z,79.42
2022-11-01T12:27:03.675Z,79.59
2022-11-01T12:29:40.963Z,79.58
2022-11-01T12:32:30.944Z,79.14
2022-11-01T12:35:08.053Z,79.14
2022-11-01T12:37:48.409Z,79.29
2022-11-01T12:40:24.530Z,79.29
2022-11-01T12:43:03.598Z,79.12
2022-11-01T12:45:50.980Z,79.43
2022-11-01T12:48:35.595Z,79.65
2022-11-01T12:51:20.656Z,79.67
2022-11-01T12:53:59.567Z,79.49
2022-11-01T12:56:30.841Z,79.75
2022-11-01T12:59:02.070Z,79.88
2022-11-01T13:01:43.791Z,80.16
2022-11-01T13:04:37.756Z,79.88
2022-11-01T13:07:33.286Z,79.79
2022-11-01T13:10:28.018Z,79.96
2022-11-01T13:13:18.378Z,79.92
2022-11-01T13:16:22.653Z,79.79
2022-11-01T13:18:53.596Z,80.02
2022-11-01T13:21:32.155Z,79.69
2022-11-01T13:24:16.524Z,79.81
2022-11-01T13:27:17.265Z,79.88
2022-11-01T13:30:05.321Z,79.82
2022-11-01T13:33:20.601Z,79.61
2022-11-01T13:36:06.020Z,79.99
2022-11-01T13:38:49.349Z,79.80
2022-11-01T13:41:35.550Z,79.93
2022-11-01T13:44:14.548Z,80.01
2022-11-01T13:47:13.772Z,79.39
2022-11-01T13:50:08.604Z,79.70
2022-11-01T13:52:45.813Z,80.06
2022-11-01T13:55:32.447Z,79.75
2022-11-01T13:58:11.746Z,79.95
2022-11-01T14:00:44.792Z,79.88
2022-11-01T14:03:21.404Z,79.98
2022-11-01T14:06:26.718Z,79.12
2022-11-01T14:09:25.948Z,79.47
2022-11-01T14:12:06.345Z,79.57
2022-11-01T14:14:39.747Z,79.70
2022-11-01T14:17:17.965Z,79.78
2022-11-01T14:19:57.248Z,79.66
2022-11-01T14:22:34.637Z,79.58
2022-11-01T14:25:32.798Z,79.54
2022-11-01T14:28:18.792Z,79.60
2022-11-01T14:30:51.056Z,79.72
2022-11-01T14:33:22.665Z,80.07
2022-11-01T14:35:58.636Z,80.09
2022-11-01T14:38:38.850Z,79.79
2022-11-01T14:41:12.486Z,80.04
2022-11-01T14:43:47.989Z,80.14
2022-11-01T14:46:30.162Z,80.10
2022-11-01T14:49:21.466Z,80.22
2022-11-01T14:51:59.528Z,80.36
2022-11-01T14:55:03.990Z,80.18
2022-11-01T14:57:35.356Z,80.22
2022-11-01T15:00:21.149Z,80.27
2022-11-01T15:02:52.403Z,80.18
2022-11-01T15:05:22.835Z,80.29
2022-11-01T15:07:59.493Z,80.13
2022-11-01T15:10:40.831Z,80.35
2022-11-01T15:13:15.945Z,80.37
2022-11-01T15:15:59.137Z,80.29
2022-11-01T15:18:30.221Z,80.27
2022-11-01T15:21:01.348Z,79.90
2022-11-01T15:23:38.201Z,80.38
2022-11-01T15:26:10.364Z,80.12
2022-11-01T15:28:50.467Z,80.20
2022-11-01T15:31:21.516Z,80.13
2022-11-01T15:34:02.058Z,80.40
2022-11-01T15:36:35.073Z,80.62
2022-11-01T15:39:19.532Z,80.64
2022-11-01T15:41:50.949Z,80.72
2022-11-01T15:44:31.121Z,80.92
2022-11-01T15:47:03.878Z,80.83
2022-11-01T15:49:47.320Z,80.75
2022-11-01T15:52:25.497Z,80.71
2022-11-01T15:55:09.492Z,80.57
2022-11-01T15:57:48.366Z,80.79
2022-11-01T16:00:24.624Z,80.70
2022-11-01T16:03:04.073Z,80.96
2022-11-01T16:05:45.177Z,80.98
2022-11-01T16:08:30.360Z,81.19
2022-11-01T16:11:09.263Z,80.97
2022-11-01T16:13:47.145Z,80.92
2022-11-01T16:16:17.560Z,81.32
2022-11-01T16:18:48.435Z,81.28
2022-11-01T16:21:28.708Z,81.45
2022-11-01T16:24:09.338Z,81.59
2022-11-01T16:27:01.785Z,82.23
2022-11-01T16:29:47.921Z,81.93
2022-11-01T16:32:23.446Z,81.73
2022-11-01T16:34:56.075Z,81.79
2022-11-01T16:37:29.934Z,81.87
2022-11-01T16:40:23.730Z,82.49
2022-11-01T16:42:54.916Z,81.81
2022-11-01T16:45:25.337Z,81.97
2022-11-01T16:47:58.448Z,82.11
2022-11-01T16:50:31.980Z,82.20
2022-11-01T16:53:02.884Z,82.32
2022-11-01T16:55:36.470Z,82.44
2022-11-01T16:58:15.627Z,82.87
2022-11-01T17:00:54.805Z,83.17
2022-11-01T17:03:25.324Z,83.06
2022-11-01T17:05:56.505Z,83.37
2022-11-01T17:08:29.908Z,83.40
2022-11-01T17:10:59.998Z,83.44
2022-11-01T17:13:30.164Z,83.67
2022-11-01T17:16:00.361Z,83.50
2022-11-01T17:18:34.317Z,83.74
2022-11-01T17:21:08.142Z,83.90
2022-11-01T17:23:38.504Z,83.73
2022-11-01T17:26:11.064Z,83.73
2022-11-01T17:28:41.398Z,83.54
2022-11-01T17:31:11.751Z,83.74
2022-11-01T17:33:41.880Z,83.89
2022-11-01T17:36:17.118Z,84.18
2022-11-01T17:38:49.312Z,84.29
2022-11-01T17:41:20.072Z,83.85
2022-11-01T17:43:50.304Z,84.01
2022-11-01T17:46:25.080Z,84.29
2022-11-01T17:48:55.210Z,84.34
2022-11-01T17:51:25.336Z,84.20
2022-11-01T17:53:56.649Z,84.32
2022-11-01T17:56:26.732Z,84.44
2022-11-01T17:58:57.019Z,84.51
2022-11-01T18:01:27.414Z,84.59
2022-11-01T18:03:57.678Z,84.67
2022-11-01T18:06:27.777Z,84.43
2022-11-01T18:08:57.881Z,84.63
2022-11-01T18:11:46.441Z,85.09
2022-11-01T18:14:26.698Z,85.37
2022-11-01T18:17:05.616Z,85.21
2022-11-01T18:19:59.628Z,85.91
2022-11-01T18:22:49.620Z,85.78
2022-11-01T18:25:44.438Z,85.71
2022-11-01T18:28:19.941Z,85.36
2022-11-01T18:30:58.995Z,85.78
2022-11-01T18:33:39.695Z,85.71
2022-11-01T18:36:16.232Z,85.55
2022-11-01T18:38:58.108Z,86.18
2022-11-01T18:41:28.312Z,85.37
2022-11-01T18:43:58.765Z,85.49
2022-11-01T18:46:57.077Z,85.91
2022-11-01T18:49:28.478Z,85.65
2022-11-01T18:51:58.674Z,85.84
2022-11-01T18:54:31.789Z,86.05
2022-11-01T18:57:15.985Z,86.59
2022-11-01T18:59:49.652Z,86.21
2022-11-01T19:02:22.821Z,86.11
2022-11-01T19:05:18.568Z,86.48
2022-11-01T19:08:10.773Z,86.32
2022-11-01T19:10:42.462Z,86.07
2022-11-01T19:13:35.501Z,86.13
2022-11-01T19:16:10.157Z,86.03
2022-11-01T19:18:43.409Z,86.41
2022-11-01T19:21:19.376Z,86.46
2022-11-01T19:23:52.006Z,86.24
2022-11-01T19:26:36.248Z,86.48
2022-11-01T19:29:13.103Z,86.39
2022-11-01T19:31:45.523Z,86.05
2022-11-01T19:34:20.489Z,86.56
2022-11-01T19:36:52.856Z,85.90
2022-11-01T19:39:34.241Z,86.08
2022-11-01T19:42:28.261Z,86.22
2022-11-01T19:45:10.490Z,86.22
2022-11-01T19:47:43.572Z,85.85
2022-11-01T19:50:21.455Z,86.06
2022-11-01T19:52:53.279Z,85.96
2022-11-01T19:55:36.190Z,86.17
2022-11-01T19:58:44.188Z,86.09
2022-11-01T20:01:17.482Z,85.87
2022-11-01T20:03:55.675Z,85.72
2022-11-01T20:06:37.463Z,85.76
2022-11-01T20:09:19.492Z,85.81
2022-11-01T20:11:49.935Z,85.84
2022-11-01T20:14:20.613Z,85.75
2022-11-01T20:16:50.849Z,85.83
2022-11-01T20:19:21.243Z,85.88
2022-11-01T20:21:52.001Z,85.81
2022-11-01T20:24:22.631Z,85.80
2022-11-01T20:26:53.305Z,85.77
2022-11-01T20:29:23.874Z,85.53
2022-11-01T20:31:53.953Z,85.69
2022-11-01T20:34:25.819Z,85.51
2022-11-01T20:37:29.724Z,85.59
2022-11-01T20:39:46.155Z,85.35
2022-11-01T20:42:16.274Z,85.34
2022-11-01T20:44:46.486Z,85.41
2022-11-01T20:47:16.586Z,85.53
2022-11-01T20:49:46.748Z,85.49
2022-11-01T20:52:38.550Z,85.44
2022-11-01T20:55:09.525Z,85.38
2022-11-01T20:57:39.627Z,85.35
2022-11-01T21:00:13.350Z,85.70
2022-11-01T21:02:43.572Z,85.13
2022-11-01T21:05:30.317Z,85.59
2022-11-01T21:08:05.498Z,85.49
2022-11-01T21:10:37.965Z,85.54
2022-11-01T21:13:21.556Z,85.65
2022-11-01T21:15:54.709Z,85.41
2022-11-01T21:18:31.115Z,85.47
2022-11-01T21:21:11.409Z,85.46
2022-11-01T21:23:46.341Z,85.45
2022-11-01T21:26:18.437Z,85.53
2022-11-01T21:29:01.956Z,85.42
2022-11-01T21:31:38.926Z,85.56
2022-11-01T21:34:12.528Z,85.37
2022-11-01T21:36:46.950Z,85.14
2022-11-01T21:39:35.741Z,85.41
2022-11-01T21:42:30.871Z,85.43
2022-11-01T21:45:22.883Z,85.02
2022-11-01T21:47:53.974Z,85.40
2022-11-01T21:50:24.193Z,85.27
2022-11-01T21:52:54.908Z,85.24
2022-11-01T21:55:25.210Z,85.18
2022-11-01T21:57:55.473Z,85.27
2022-11-01T22:00:25.771Z,85.20
2022-11-01T22:02:55.968Z,85.43
2022-11-01T22:05:26.139Z,85.43
2022-11-01T22:07:56.275Z,85.63
2022-11-01T22:10:26.341Z,85.74
2022-11-01T22:12:56.519Z,85.55
2022-11-01T22:15:26.592Z,85.55
2022-11-01T22:17:57.271Z,85.52
2022-11-01T22:20:27.460Z,85.69
2022-11-01T22:22:57.691Z,85.71
2022-11-01T22:25:28.574Z,85.80
2022-11-01T22:27:58.732Z,85.83
2022-11-01T22:30:29.032Z,85.77
2022-11-01T22:32:59.217Z,85.73
2022-11-01T22:35:29.592Z,85.71
2022-11-01T22:38:00.259Z,85.59
2022-11-01T22:40:30.790Z,85.96
2022-11-01T22:43:01.152Z,89.38
2022-11-01T22:45:41.689Z,88.98
2022-11-01T22:48:17.760Z,89.39
2022-11-01T22:50:48.294Z,89.38
2022-11-01T22:53:24.450Z,90.13
2022-11-01T22:55:55.591Z,90.59
2022-11-01T22:58:38.301Z,90.92
2022-11-01T23:01:19.570Z,91.31
2022-11-01T23:03:53.916Z,91.28
2022-11-01T23:06:35.337Z,91.66
2022-11-01T23:09:15.073Z,91.72
2022-11-01T23:12:11.343Z,91.57
2022-11-01T23:14:45.410Z,95.42
2022-11-01T23:17:35.497Z,93.17
2022-11-01T23:20:06.427Z,92.38
2022-11-01T23:22:36.857Z,92.95
2022-11-01T23:25:08.734Z,93.06
2022-11-01T23:27:39.320Z,93.44
2022-11-01T23:30:09.885Z,93.89
2022-11-01T23:32:40.527Z,94.18
2022-11-01T23:35:14.887Z,94.23
2022-11-01T23:37:45.837Z,94.42
2022-11-01T23:40:21.478Z,94.27
2022-11-01T23:42:51.813Z,94.44
2022-11-01T23:45:28.952Z,94.37
2022-11-01T23:48:00.105Z,94.84
2022-11-01T23:50:34.370Z,95.12
2022-11-01T23:53:09.832Z,95.53
2022-11-01T23:55:44.091Z,96.48
2022-11-01T23:58:22.469Z,96.72
